Time;durP1;ratioP1;P1;durP2;ratioP2;P2;SDS_P1;SDS_P2;PMS_P1;PMS_P2;Temp;Humidity;BMP_temperature;BMP_pressure;BME280_temperature;BME280_humidity;BME280_pressure;Samples;Min_cycle;Max_cycle;Signal;HPM_P1;HPM_P2
2022/12/15 00:39:58;;;;;;;256.30;124.25;;;;;;;-2.73;75.44;95781.55;1827322;77;25703;-70
2022/12/15 00:42:27;;;;;;;270.93;128.53;;;;;;;-2.73;75.43;95786.83;1844551;76;25785;-68
2022/12/15 00:44:55;;;;;;;325.22;146.62;;;;;;;-2.77;75.45;95785.50;1803558;77;25776;-68
2022/12/15 00:47:22;;;;;;;305.43;138.40;;;;;;;-2.77;75.47;95788.14;1803203;77;27391;-70
2022/12/15 01:22:42;;;;;;;250.75;117.50;;;;;;;-2.68;76.04;95821.49;1785196;78;26469;-68
2022/12/15 01:25:10;;;;;;;221.13;106.83;;;;;;;-2.68;76.06;95830.73;1811599;78;25680;-72
2022/12/15 01:27:37;;;;;;;229.68;110.03;;;;;;;-2.65;76.20;95834.34;1799952;78;27381;-71
2022/12/15 01:30:07;;;;;;;217.28;106.47;;;;;;;-2.57;76.30;95844.09;1786765;78;25930;-68
2022/12/15 01:32:34;;;;;;;219.20;107.00;;;;;;;-2.56;76.27;95841.77;1797973;78;25759;-68
2022/12/15 01:35:01;;;;;;;220.02;105.97;;;;;;;-2.51;76.33;95834.64;1798380;78;26537;-68
2022/12/15 01:37:28;;;;;;;221.20;108.42;;;;;;;-2.50;76.28;95833.66;1797995;78;25715;-67
2022/12/15 01:42:40;;;;;;;236.92;114.82;;;;;;;-2.50;76.28;95841.58;1797578;78;25706;-68
2022/12/15 01:45:32;;;;;;;260.48;119.22;;;;;;;-2.50;76.30;95844.22;1782012;78;25820;-69
2022/12/15 01:48:06;;;;;;;266.35;123.82;;;;;;;-2.50;76.29;95840.26;1797762;78;26918;-69
2022/12/15 01:50:46;;;;;;;276.05;121.60;;;;;;;-2.51;76.34;95842.57;1798137;78;25873;-72
2022/12/15 01:53:15;;;;;;;280.80;124.50;;;;;;;-2.50;76.41;95846.37;1796678;78;27421;-68
2022/12/15 01:55:43;;;;;;;263.57;122.98;;;;;;;-2.46;76.53;95841.09;1798120;78;25763;-68
2022/12/15 01:58:14;;;;;;;273.25;125.30;;;;;;;-2.41;76.45;95843.20;1797847;79;25707;-68
2022/12/15 02:00:41;;;;;;;246.35;119.95;;;;;;;-2.42;76.44;95841.58;1828276;76;25746;-68
2022/12/15 02:03:10;;;;;;;252.38;120.20;;;;;;;-2.39;76.50;95844.69;1839943;76;25683;-68
2022/12/15 02:05:37;;;;;;;222.80;110.57;;;;;;;-2.35;76.51;95847.83;1839902;76;28165;-71
2022/12/15 02:08:05;;;;;;;225.45;109.10;;;;;;;-2.35;76.49;95847.83;1839502;76;25387;-67
2022/12/15 02:10:49;;;;;;;244.82;119.22;;;;;;;-2.34;76.51;95858.23;1839870;76;25747;-68
2022/12/15 02:13:43;;;;;;;248.45;120.05;;;;;;;-2.31;76.55;95855.26;1834280;76;26158;-68
2022/12/15 02:16:36;;;;;;;244.50;117.35;;;;;;;-2.34;76.50;95864.01;1838434;76;25755;-71
2022/12/15 02:19:40;;;;;;;242.37;120.17;;;;;;;-2.37;76.60;95866.98;1825456;76;27293;-68
2022/12/15 02:22:50;;;;;;;231.15;111.90;;;;;;;-2.37;76.60;95866.98;1839826;76;26178;-72
2022/12/15 02:25:40;;;;;;;230.47;112.50;;;;;;;-2.37;76.65;95864.34;1799034;79;25763;-68
2022/12/15 02:28:53;;;;;;;223.68;113.28;;;;;;;-2.38;76.62;95881.19;1797362;79;26109;-70
2022/12/15 02:31:51;;;;;;;221.77;110.90;;;;;;;-2.39;76.69;95882.17;1760410;80;25451;-68
2022/12/15 02:34:34;;;;;;;226.40;111.25;;;;;;;-2.41;76.71;95878.37;1756738;80;27747;-68
2022/12/15 02:37:21;;;;;;;230.75;113.68;;;;;;;-2.41;76.73;95871.77;1751362;80;25850;-71
2022/12/15 02:39:48;;;;;;;235.25;117.10;;;;;;;-2.40;76.79;95876.56;1771557;80;26225;-68
2022/12/15 02:42:14;;;;;;;228.37;113.45;;;;;;;-2.39;76.81;95884.33;1758505;79;26487;-67
2022/12/15 02:44:49;;;;;;;232.55;116.22;;;;;;;-2.36;76.90;95889.78;1758264;79;25781;-68
2022/12/15 02:47:57;;;;;;;219.70;111.35;;;;;;;-2.32;76.97;95891.10;1755516;79;27500;-70
2022/12/15 02:50:49;;;;;;;220.45;109.32;;;;;;;-2.31;77.00;95892.75;1754355;79;25809;-68
2022/12/15 02:53:30;;;;;;;220.07;109.37;;;;;;;-2.37;76.99;95891.59;1758503;79;25821;-68
2022/12/15 02:56:17;;;;;;;222.25;110.08;;;;;;;-2.39;77.15;95891.42;1779416;79;25858;-68
2022/12/15 02:59:13;;;;;;;206.80;101.82;;;;;;;-2.41;77.22;95897.38;1787031;77;25726;-68
2022/12/15 03:02:04;;;;;;;202.57;102.32;;;;;;;-2.40;77.28;95895.88;1819774;77;27389;-68
2022/12/15 03:04:32;;;;;;;197.60;101.33;;;;;;;-2.39;77.36;95894.07;1809302;77;25666;-68
2022/12/15 03:07:04;;;;;;;189.13;95.15;;;;;;;-2.39;77.42;95898.03;1818581;77;25737;-71
2022/12/15 03:09:31;;;;;;;169.40;90.00;;;;;;;-2.38;77.49;95899.69;1728663;81;25953;-68
2022/12/15 03:11:58;;;;;;;166.05;86.65;;;;;;;-2.35;77.55;95900.67;1731475;81;25772;-71
2022/12/15 03:14:26;;;;;;;166.62;88.85;;;;;;;-2.37;77.49;95894.73;1731646;81;28278;-68
2022/12/15 03:16:53;;;;;;;168.40;90.20;;;;;;;-2.37;77.53;95908.77;1731564;81;25735;-71
2022/12/15 03:19:20;;;;;;;162.57;87.78;;;;;;;-2.33;77.61;95906.63;1731749;81;25708;-70
2022/12/15 03:21:47;;;;;;;166.20;88.22;;;;;;;-2.28;77.68;95912.22;1731638;81;26060;-68
2022/12/15 03:24:13;;;;;;;158.55;86.60;;;;;;;-2.23;77.65;95912.05;1731873;81;25754;-68
2022/12/15 03:26:40;;;;;;;158.85;86.28;;;;;;;-2.17;77.62;95922.43;1731668;81;27364;-71
2022/12/15 03:29:07;;;;;;;166.18;86.87;;;;;;;-2.12;77.62;95915.33;1732602;81;25703;-68
2022/12/15 03:31:34;;;;;;;164.30;83.82;;;;;;;-2.11;77.54;95913.84;1734845;81;25810;-69
2022/12/15 03:34:01;;;;;;;162.60;82.02;;;;;;;-2.14;77.50;95916.81;1734794;81;25742;-68
2022/12/15 03:36:28;;;;;;;153.25;78.22;;;;;;;-2.16;77.48;95921.44;1734883;82;26136;-70
2022/12/15 03:38:54;;;;;;;156.07;81.45;;;;;;;-2.18;77.50;95923.45;1734508;81;28123;-68
2022/12/15 03:41:21;;;;;;;161.88;83.67;;;;;;;-2.20;77.52;95926.76;1734843;81;25757;-68
2022/12/15 03:43:48;;;;;;;159.18;83.25;;;;;;;-2.19;77.58;95929.73;1734326;82;25315;-70
2022/12/15 03:46:14;;;;;;;159.87;84.42;;;;;;;-2.19;77.60;95934.52;1734486;81;25717;-71
2022/12/15 03:48:41;;;;;;;165.97;85.45;;;;;;;-2.19;77.64;95942.95;1734497;81;25311;-68
2022/12/15 03:51:08;;;;;;;174.72;90.70;;;;;;;-2.20;77.65;95939.97;1734688;81;27817;-68
2022/12/15 03:53:34;;;;;;;165.03;87.05;;;;;;;-2.18;77.74;95940.64;1734650;81;25734;-68
2022/12/15 03:56:01;;;;;;;164.18;89.28;;;;;;;-2.18;77.75;95947.24;1734486;81;25376;-70
2022/12/15 03:58:28;;;;;;;180.07;93.52;;;;;;;-2.18;77.76;95945.92;1734310;81;25855;-68
2022/12/15 04:00:55;;;;;;;170.25;92.57;;;;;;;-2.20;77.74;95949.23;1734557;81;25738;-68
2022/12/15 04:03:21;;;;;;;166.30;88.33;;;;;;;-2.18;77.74;95953.86;1734347;81;27834;-69
2022/12/15 04:05:49;;;;;;;167.77;91.37;;;;;;;-2.17;77.75;95955.48;1750854;78;26232;-68
2022/12/15 04:08:16;;;;;;;166.90;88.67;;;;;;;-2.13;77.83;95957.30;1784008;78;26536;-72
2022/12/15 04:10:42;;;;;;;159.25;85.87;;;;;;;-2.11;77.82;95964.07;1781328;78;25728;-68
2022/12/15 04:13:11;;;;;;;152.35;82.30;;;;;;;-2.08;77.79;95970.35;1790986;79;25769;-67
2022/12/15 04:15:40;;;;;;;157.75;84.47;;;;;;;-2.06;77.84;95967.55;1771845;78;27359;-68
2022/12/15 04:18:09;;;;;;;159.75;86.37;;;;;;;-2.05;77.88;95962.59;1773063;78;25831;-69
2022/12/15 04:20:38;;;;;;;158.00;83.62;;;;;;;-2.03;77.87;95973.30;1803473;78;25703;-68
2022/12/15 04:23:06;;;;;;;159.32;84.72;;;;;;;-2.00;77.86;95973.47;1781700;78;25753;-72
2022/12/15 05:32:07;;;;;;;179.82;91.02;;;;;;;-1.88;77.98;96062.05;1806832;76;26111;-67
2022/12/15 05:34:36;;;;;;;172.68;89.37;;;;;;;-1.90;77.96;96068.81;1820341;77;25750;-69
2022/12/15 05:37:06;;;;;;;183.82;95.55;;;;;;;-1.88;78.06;96061.55;1837398;77;27434;-68
2022/12/15 05:39:32;;;;;;;183.82;94.10;;;;;;;-1.84;78.10;96065.52;1844823;77;25258;-71
2022/12/15 05:42:00;;;;;;;177.65;92.12;;;;;;;-1.86;77.99;96076.76;1841391;77;26079;-70
2022/12/15 05:44:28;;;;;;;190.07;96.30;;;;;;;-1.88;78.00;96073.45;1797388;77;26448;-70
2022/12/15 05:46:55;;;;;;;184.50;96.55;;;;;;;-1.87;78.03;96083.04;1797269;77;26473;-70
2022/12/15 05:49:24;;;;;;;177.65;93.67;;;;;;;-1.89;78.02;96082.87;1821806;77;28240;-71
2022/12/15 05:51:50;;;;;;;185.35;98.40;;;;;;;-1.92;78.00;96092.45;1815144;77;25845;-70
2022/12/15 05:54:19;;;;;;;184.52;97.33;;;;;;;-1.93;78.03;96096.91;1830718;77;25699;-70
2022/12/15 05:56:46;;;;;;;199.80;103.65;;;;;;;-1.97;78.01;96102.22;1797496;77;25742;-68
2022/12/15 05:59:14;;;;;;;189.45;101.80;;;;;;;-1.97;78.07;96110.16;1805176;77;25725;-70
2022/12/15 06:01:41;;;;;;;185.22;102.25;;;;;;;-1.94;78.15;96116.45;1844893;77;27290;-70
2022/12/15 06:06:40;;;;;;;193.35;104.12;;;;;;;-1.94;78.11;96128.34;1764227;80;25786;-67
2022/12/15 06:09:07;;;;;;;187.97;106.30;;;;;;;-1.97;78.12;96128.67;1761676;80;26244;-69
2022/12/15 06:11:34;;;;;;;190.45;104.85;;;;;;;-1.97;78.13;96126.52;1757315;80;25873;-68
2022/12/15 06:14:00;;;;;;;195.95;99.85;;;;;;;-1.97;78.17;96133.95;1767814;80;27370;-68
2022/12/15 06:16:27;;;;;;;191.55;97.70;;;;;;;-1.95;78.16;96138.59;1769130;80;25809;-68
2022/12/15 06:18:58;;;;;;;183.87;101.45;;;;;;;-1.95;78.19;96133.30;1760479;80;25786;-68
2022/12/15 06:21:36;;;;;;;186.28;97.60;;;;;;;-1.95;78.20;96140.41;1728925;80;25785;-67
2022/12/15 06:24:05;;;;;;;191.00;102.97;;;;;;;-1.92;78.33;96146.67;1731748;82;26460;-68
2022/12/15 06:26:36;;;;;;;193.82;103.22;;;;;;;-1.85;78.39;96145.03;1731261;81;27387;-68
2022/12/15 06:29:07;;;;;;;208.00;111.03;;;;;;;-1.81;78.41;96145.84;1730060;81;25730;-68
2022/12/15 06:31:35;;;;;;;197.75;103.55;;;;;;;-1.76;78.36;96152.47;1750162;81;25843;-70
2022/12/15 06:34:05;;;;;;;197.37;108.47;;;;;;;-1.79;78.22;96148.33;1750478;81;26827;-68
2022/12/15 06:36:32;;;;;;;196.63;107.03;;;;;;;-1.85;78.18;96155.12;1744058;81;25966;-71
2022/12/15 06:39:03;;;;;;;193.78;105.12;;;;;;;-1.85;78.29;96169.67;1755011;81;27409;-74
2022/12/15 06:41:29;;;;;;;197.30;107.12;;;;;;;-1.81;78.35;96165.68;1755168;81;25794;-67
2022/12/15 06:43:57;;;;;;;192.87;106.63;;;;;;;-1.80;78.31;96171.80;1755382;81;25740;-69
2022/12/15 06:46:25;;;;;;;210.35;116.05;;;;;;;-1.81;78.26;96176.27;1755532;81;25856;-68
2022/12/15 06:48:52;;;;;;;216.70;118.20;;;;;;;-1.83;78.21;96186.20;1755470;81;25351;-67
2022/12/15 06:51:19;;;;;;;224.92;121.17;;;;;;;-1.84;78.19;96204.88;1755438;81;27372;-68
2022/12/15 06:53:52;;;;;;;221.90;116.67;;;;;;;-1.86;78.22;96219.59;1755251;81;25792;-69
2022/12/15 06:56:25;;;;;;;220.75;118.22;;;;;;;-1.81;78.37;96225.20;1755534;81;33046;-68
2022/12/15 06:58:53;;;;;;;211.20;112.20;;;;;;;-1.76;78.36;96224.72;1755113;81;26489;-70
2022/12/15 07:01:23;;;;;;;206.28;109.25;;;;;;;-1.78;78.30;96226.70;1755187;81;25725;-68
2022/12/15 07:03:52;;;;;;;211.95;114.20;;;;;;;-1.86;78.21;96220.08;1774365;80;27397;-68
2022/12/15 07:06:19;;;;;;;194.20;104.10;;;;;;;-1.90;78.26;96231.97;1786235;80;26509;-73
2022/12/15 07:08:53;;;;;;;191.18;106.00;;;;;;;-1.90;78.30;96232.80;1786263;80;25760;-68
2022/12/15 07:11:21;;;;;;;196.63;106.05;;;;;;;-1.89;78.32;96243.72;1786183;80;25781;-68
2022/12/15 07:13:51;;;;;;;197.65;107.15;;;;;;;-1.89;78.37;96247.68;1786368;80;25790;-68
2022/12/15 07:16:18;;;;;;;199.77;110.48;;;;;;;-1.89;78.38;96249.00;1786521;80;27456;-70
2022/12/15 07:18:45;;;;;;;221.00;115.88;;;;;;;-1.86;78.42;96255.30;1817824;78;25749;-68
2022/12/15 07:21:12;;;;;;;210.45;112.95;;;;;;;-1.83;78.42;96256.80;1831877;78;25732;-68
2022/12/15 07:23:39;;;;;;;211.77;115.57;;;;;;;-1.82;78.40;96249.20;1831257;77;25756;-68
2022/12/15 07:26:08;;;;;;;226.00;121.33;;;;;;;-1.82;78.39;96243.41;1831675;77;25661;-70
2022/12/15 07:28:37;;;;;;;237.32;126.33;;;;;;;-1.79;78.43;96255.95;1831573;78;27380;-72
2022/12/15 07:31:07;;;;;;;228.88;124.45;;;;;;;-1.76;78.39;96252.99;1815255;77;25821;-68
2022/12/15 07:33:36;;;;;;;238.35;128.12;;;;;;;-1.74;78.36;96264.25;1826615;77;25696;-68
2022/12/15 07:36:04;;;;;;;230.95;128.62;;;;;;;-1.73;78.38;96264.09;1799931;77;26450;-68
2022/12/15 07:38:31;;;;;;;238.52;129.60;;;;;;;-1.72;78.37;96267.56;1833468;77;25992;-69
2022/12/15 07:41:04;;;;;;;234.05;126.95;;;;;;;-1.70;78.41;96277.49;1825325;77;27388;-68
2022/12/15 07:43:31;;;;;;;226.77;125.12;;;;;;;-1.66;78.46;96280.13;1847201;77;25810;-68
2022/12/15 07:45:58;;;;;;;232.57;124.90;;;;;;;-1.68;78.40;96279.45;1832420;77;25747;-68
2022/12/15 07:48:26;;;;;;;234.10;120.57;;;;;;;-1.67;78.44;96283.75;1799991;77;26819;-67
2022/12/15 07:50:56;;;;;;;243.30;125.72;;;;;;;-1.66;78.42;96286.24;1799742;77;25681;-69
2022/12/15 07:53:22;;;;;;;242.55;121.30;;;;;;;-1.63;78.46;96290.39;1821445;77;26818;-68
2022/12/15 07:55:57;;;;;;;240.68;120.92;;;;;;;-1.60;78.44;96295.36;1805923;77;25652;-68
2022/12/15 07:58:26;;;;;;;231.50;121.10;;;;;;;-1.60;78.37;96298.01;1800128;77;25682;-68
2022/12/15 08:00:59;;;;;;;233.25;121.20;;;;;;;-1.60;78.41;96298.01;1806565;77;26537;-69
2022/12/15 08:03:27;;;;;;;233.87;120.15;;;;;;;-1.59;78.48;96295.20;1820506;77;26099;-71
2022/12/15 08:05:54;;;;;;;242.75;122.10;;;;;;;-1.56;78.49;96299.31;1800014;77;27427;-71
2022/12/15 08:08:21;;;;;;;215.28;115.75;;;;;;;-1.56;78.51;96304.12;1800284;77;25607;-72
2022/12/15 08:10:48;;;;;;;213.05;113.52;;;;;;;-1.51;78.53;96313.73;1799909;77;25669;-68
2022/12/15 08:13:15;;;;;;;226.25;120.13;;;;;;;-1.52;78.45;96318.69;1799912;77;26112;-68
2022/12/15 08:15:42;;;;;;;233.60;121.92;;;;;;;-1.54;78.43;96326.45;1800255;77;25655;-71
2022/12/15 08:18:09;;;;;;;238.95;124.12;;;;;;;-1.51;78.55;96338.88;1843139;77;27783;-68
2022/12/15 08:20:36;;;;;;;231.95;125.80;;;;;;;-1.47;78.59;96341.54;1836292;77;25435;-71
2022/12/15 08:23:02;;;;;;;234.77;122.50;;;;;;;-1.41;78.67;96347.98;1800703;77;25778;-70
2022/12/15 08:25:29;;;;;;;227.47;124.33;;;;;;;-1.35;78.62;96355.78;1799855;77;25682;-72
2022/12/15 08:27:56;;;;;;;237.65;132.50;;;;;;;-1.34;78.59;96351.66;1838219;77;25430;-70
2022/12/15 08:30:23;;;;;;;262.68;140.45;;;;;;;-1.38;78.45;96346.34;1827596;77;27367;-72
2022/12/15 08:32:50;;;;;;;263.07;135.55;;;;;;;-1.37;78.49;96351.14;1799844;77;25675;-71
2022/12/15 08:35:17;;;;;;;265.50;137.03;;;;;;;-1.43;78.42;96361.88;1815441;77;25734;-74
2022/12/15 08:37:44;;;;;;;262.88;136.75;;;;;;;-1.49;78.47;96369.98;1817304;77;25875;-70
2022/12/15 08:40:12;;;;;;;255.83;134.60;;;;;;;-1.46;78.63;96371.48;1799877;77;25479;-73
2022/12/15 08:42:39;;;;;;;236.55;128.57;;;;;;;-1.38;78.72;96371.48;1832861;77;27436;-70
2022/12/15 08:45:07;;;;;;;239.05;128.87;;;;;;;-1.39;78.58;96383.56;1832226;76;25665;-71
2022/12/15 08:47:34;;;;;;;234.40;128.23;;;;;;;-1.39;78.56;96384.39;1833855;77;26521;-73
2022/12/15 08:50:01;;;;;;;234.37;126.00;;;;;;;-1.36;78.63;96392.52;1833881;76;25736;-70
2022/12/15 08:52:28;;;;;;;246.43;127.53;;;;;;;-1.36;78.60;96401.28;1837477;76;25633;-72
2022/12/15 08:54:54;;;;;;;243.15;129.80;;;;;;;-1.36;78.60;96399.12;1832096;76;27357;-74
2022/12/15 08:57:21;;;;;;;245.63;130.63;;;;;;;-1.38;78.60;96395.31;1832518;77;25739;-70
2022/12/15 08:59:48;;;;;;;247.33;129.32;;;;;;;-1.36;78.70;96384.08;1842183;76;25677;-70
2022/12/15 09:02:14;;;;;;;271.05;139.72;;;;;;;-1.37;78.63;96388.20;1831133;77;26744;-72
2022/12/15 09:04:41;;;;;;;271.57;143.22;;;;;;;-1.34;78.77;96390.04;1829875;77;25797;-70
2022/12/15 09:07:07;;;;;;;259.18;136.62;;;;;;;-1.31;78.81;96391.02;1829282;77;27301;-72
2022/12/15 09:09:34;;;;;;;247.90;138.70;;;;;;;-1.26;78.81;96392.70;1830502;76;25439;-72
2022/12/15 09:12:01;;;;;;;255.22;140.70;;;;;;;-1.29;78.85;96391.69;1830892;77;25744;-72
2022/12/15 09:14:28;;;;;;;281.68;147.60;;;;;;;-1.29;78.91;96390.86;1830729;77;25623;-70
2022/12/15 09:16:55;;;;;;;269.93;144.47;;;;;;;-1.24;79.03;96394.69;1831206;77;25656;-72
2022/12/15 09:19:22;;;;;;;271.52;138.52;;;;;;;-1.19;79.00;96385.74;1821844;77;27357;-71
2022/12/15 09:21:48;;;;;;;264.77;138.55;;;;;;;-1.22;78.95;96390.06;1835175;77;25625;-72
2022/12/15 09:24:15;;;;;;;245.07;133.03;;;;;;;-1.26;78.95;96401.13;1822295;77;25668;-70
2022/12/15 09:26:41;;;;;;;244.47;133.93;;;;;;;-1.25;79.02;96397.00;1844772;77;25681;-71
2022/12/15 09:29:13;;;;;;;234.65;127.72;;;;;;;-1.17;79.14;96398.33;1808786;77;25633;-71
2022/12/15 09:31:43;;;;;;;219.62;120.25;;;;;;;-1.12;79.08;96396.03;1799876;77;27378;-70
2022/12/15 09:34:13;;;;;;;214.97;116.42;;;;;;;-1.10;78.91;96390.08;1795803;77;25746;-72
2022/12/15 09:36:41;;;;;;;190.20;109.20;;;;;;;-1.09;78.95;96382.44;1796898;77;25267;-70
2022/12/15 09:39:10;;;;;;;184.32;103.78;;;;;;;-1.10;78.75;96388.76;1813805;77;25748;-70
2022/12/15 09:41:36;;;;;;;196.25;108.78;;;;;;;-1.06;78.88;96394.53;1818354;77;25772;-72
2022/12/15 09:44:08;;;;;;;181.50;102.60;;;;;;;-0.97;78.88;96390.09;1833497;77;27330;-70
2022/12/15 09:47:04;;;;;;;193.93;105.43;;;;;;;-0.92;78.84;96389.08;1819187;77;25671;-72
2022/12/15 09:49:55;;;;;;;197.47;105.52;;;;;;;-0.84;78.87;96387.26;1847518;77;25692;-67
2022/12/15 09:52:32;;;;;;;198.35;105.72;;;;;;;-0.81;78.77;96380.31;1807596;77;25679;-68
2022/12/15 09:57:46;;;;;;;194.52;107.17;;;;;;;-0.78;78.71;96377.34;1732838;82;27500;-68
2022/12/15 10:00:24;;;;;;;190.45;105.05;;;;;;;-0.72;78.77;96378.48;1726709;82;25746;-68
2022/12/15 10:02:56;;;;;;;183.85;102.02;;;;;;;-0.57;79.03;96383.94;1732754;82;25745;-68
2022/12/15 10:05:53;;;;;;;179.65;97.97;;;;;;;-0.41;79.07;96370.18;1732543;82;26884;-68
2022/12/15 10:08:23;;;;;;;173.13;98.90;;;;;;;-0.30;78.75;96373.47;1665721;86;25750;-68
2022/12/15 10:10:54;;;;;;;169.85;95.35;;;;;;;-0.24;78.63;96379.44;1665860;86;27362;-70
2022/12/15 10:13:42;;;;;;;121.67;70.65;;;;;;;-0.17;78.62;96381.23;1608175;89;25688;-71
2022/12/15 10:16:29;;;;;;;160.57;89.65;;;;;;;-0.16;78.34;96371.45;1611030;89;25810;-71
2022/12/15 10:19:16;;;;;;;164.22;92.88;;;;;;;-0.13;78.37;96360.51;1535938;92;25955;-68
2022/12/15 10:21:43;;;;;;;166.85;93.62;;;;;;;-0.10;78.29;96357.49;1444682;97;25974;-71
2022/12/15 10:24:20;;;;;;;174.60;97.60;;;;;;;-0.10;78.13;96368.10;1445476;97;27905;-70
2022/12/15 10:27:07;;;;;;;171.68;92.27;;;;;;;-0.09;78.18;96361.80;1445652;97;26015;-68
2022/12/15 10:29:44;;;;;;;161.52;92.12;;;;;;;-0.06;78.24;96370.75;1445365;97;25892;-68
2022/12/15 10:32:36;;;;;;;173.45;99.52;;;;;;;-0.06;78.10;96369.42;1462997;96;26164;-68
2022/12/15 10:35:16;;;;;;;170.32;98.78;;;;;;;-0.03;78.26;96371.75;1467125;96;25866;-73
2022/12/15 10:37:43;;;;;;;175.30;96.15;;;;;;;0.07;78.34;96382.16;1492887;94;27848;-67
2022/12/15 10:40:21;;;;;;;173.50;95.12;;;;;;;0.12;78.31;96382.48;1467229;96;25882;-71
2022/12/15 10:42:50;;;;;;;166.30;91.20;;;;;;;0.14;78.14;96381.28;1467572;96;25839;-68
2022/12/15 10:45:38;;;;;;;154.45;88.78;;;;;;;0.16;78.09;96383.77;1465097;95;26346;-70
2022/12/15 10:48:07;;;;;;;114.95;67.70;;;;;;;0.20;78.09;96390.41;1480942;95;25953;-68
2022/12/15 10:50:34;;;;;;;120.35;66.28;;;;;;;0.22;77.99;96391.89;1481651;95;27563;-71
2022/12/15 10:53:08;;;;;;;121.85;66.50;;;;;;;0.21;77.82;96379.63;1482910;95;25783;-68
2022/12/15 10:55:39;;;;;;;124.65;69.53;;;;;;;0.22;77.78;96383.93;1588880;88;25746;-71
2022/12/15 10:58:22;;;;;;;118.40;67.85;;;;;;;0.23;77.81;96388.74;1596693;85;25744;-68
2022/12/15 11:01:09;;;;;;;124.82;68.47;;;;;;;0.23;77.73;96396.20;1669718;84;25751;-68
2022/12/15 11:03:37;;;;;;;128.38;72.67;;;;;;;0.19;77.58;96396.21;1665688;84;27459;-68
2022/12/15 11:06:11;;;;;;;127.10;72.22;;;;;;;0.19;77.67;96400.19;1669621;84;25798;-68
2022/12/15 11:08:40;;;;;;;136.82;79.30;;;;;;;0.22;77.71;96410.47;1640711;86;25824;-68
2022/12/15 11:14:26;;;;;;;137.50;77.62;;;;;;;0.24;77.56;96412.43;1648381;85;25781;-68
2022/12/15 11:16:58;;;;;;;144.50;81.47;;;;;;;0.19;77.41;96406.83;1656415;85;26752;-71
2022/12/15 11:19:39;;;;;;;142.62;80.45;;;;;;;0.05;77.39;96400.89;1635941;85;26098;-70
2022/12/15 11:22:11;;;;;;;136.18;78.40;;;;;;;0.03;77.66;96405.54;1591765;90;25830;-68
2022/12/15 11:24:49;;;;;;;140.75;79.87;;;;;;;0.04;77.65;96410.34;1589554;90;26855;-69
2022/12/15 11:27:29;;;;;;;142.45;79.10;;;;;;;0.02;77.74;96409.69;1576402;90;25753;-68
2022/12/15 11:30:05;;;;;;;137.22;77.42;;;;;;;0.05;77.91;96427.43;1535383;92;28705;-68
2022/12/15 11:32:34;;;;;;;127.85;69.35;;;;;;;0.14;77.99;96426.40;1517554;94;26282;-70
2022/12/15 11:35:02;;;;;;;118.42;64.03;;;;;;;0.14;77.88;96422.92;1496893;95;25979;-68
2022/12/15 11:37:46;;;;;;;114.72;64.82;;;;;;;0.18;77.83;96433.03;1504781;94;25890;-68
2022/12/15 11:40:38;;;;;;;124.27;67.58;;;;;;;0.05;77.56;96427.43;1520482;94;25824;-72
2022/12/15 11:43:50;;;;;;;114.45;67.55;;;;;;;-0.05;77.73;96426.80;1520486;94;27486;-68
2022/12/15 11:46:24;;;;;;;124.83;69.17;;;;;;;-0.12;77.77;96427.16;1520512;94;25800;-68
2022/12/15 11:49:29;;;;;;;120.55;67.08;;;;;;;-0.08;77.98;96432.43;1535111;92;25935;-68
2022/12/15 11:52:30;;;;;;;136.97;76.00;;;;;;;-0.06;78.05;96441.05;1559470;91;26038;-69
2022/12/15 11:55:17;;;;;;;125.62;70.92;;;;;;;0.00;78.12;96441.19;1562561;90;25802;-70
2022/12/15 11:57:53;;;;;;;123.07;68.72;;;;;;;0.06;78.12;96452.97;1501963;95;28033;-68
2022/12/15 12:00:22;;;;;;;120.72;66.62;;;;;;;0.11;78.10;96450.65;1501593;94;25599;-69
2022/12/15 12:03:00;;;;;;;124.30;69.58;;;;;;;0.14;78.05;96446.80;1502028;94;25798;-68
2022/12/15 12:05:57;;;;;;;126.25;69.87;;;;;;;0.18;78.05;96448.95;1502253;94;26915;-68
2022/12/15 12:08:58;;;;;;;128.87;71.22;;;;;;;0.22;78.07;96443.65;1534760;92;26204;-68
2022/12/15 12:11:48;;;;;;;125.47;69.62;;;;;;;0.25;78.07;96453.90;1531889;92;26823;-68
2022/12/15 12:14:44;;;;;;;122.45;66.47;;;;;;;0.25;78.09;96457.88;1548332;91;25554;-68
2022/12/15 12:17:22;;;;;;;120.70;66.72;;;;;;;0.31;78.11;96454.56;1578026;87;25820;-69
2022/12/15 12:19:54;;;;;;;121.13;63.17;;;;;;;0.34;78.04;96454.73;1632109;87;26066;-71
2022/12/15 12:22:28;;;;;;;124.05;65.03;;;;;;;0.34;78.00;96463.52;1559004;91;25817;-68
2022/12/15 12:25:06;;;;;;;115.85;63.95;;;;;;;0.38;77.97;96469.30;1594822;87;27431;-68
2022/12/15 12:27:58;;;;;;;120.13;64.40;;;;;;;0.41;77.88;96469.45;1603326;87;25535;-69
2022/12/15 12:30:28;;;;;;;;;;;;;;;0.36;77.84;96476.09;1608497;87;25746;-69
2022/12/15 12:33:09;;;;;;;118.28;63.65;;;;;;;0.28;77.68;96460.20;1594936;88;26839;-69
2022/12/15 12:35:57;;;;;;;127.72;65.57;;;;;;;0.19;77.79;96458.58;1592098;88;26802;-70
2022/12/15 12:38:36;;;;;;;119.97;66.45;;;;;;;0.21;77.91;96454.43;1593737;88;28055;-69
2022/12/15 12:41:26;;;;;;;133.63;71.57;;;;;;;0.17;77.80;96447.30;1593320;88;25745;-68
2022/12/15 12:43:56;;;;;;;129.85;69.40;;;;;;;0.17;77.91;96445.97;1592636;88;25816;-68
2022/12/15 12:46:46;;;;;;;129.65;69.17;;;;;;;0.19;77.94;96444.48;1593689;88;26488;-71
2022/12/15 12:49:39;;;;;;;129.03;70.12;;;;;;;0.20;78.01;96452.27;1558823;90;25983;-69
2022/12/15 12:52:17;;;;;;;126.87;68.67;;;;;;;0.25;78.05;96456.55;1532180;91;27353;-68
2022/12/15 12:54:49;;;;;;;129.27;71.67;;;;;;;0.33;78.08;96473.80;1512420;92;25847;-68
2022/12/15 12:57:38;;;;;;;140.50;72.92;;;;;;;0.38;78.08;96473.77;1465356;96;26000;-69
2022/12/15 13:00:29;;;;;;;124.62;63.50;;;;;;;0.42;77.95;96483.89;1453879;97;25848;-69
2022/12/15 13:03:16;;;;;;;123.75;63.73;;;;;;;0.41;77.85;96484.06;1465924;96;25815;-68
2022/12/15 13:05:45;;;;;;;116.35;62.35;;;;;;;0.40;77.83;96482.40;1465881;96;28025;-68
2022/12/15 13:08:17;;;;;;;125.02;64.62;;;;;;;0.38;77.77;96475.09;1466226;96;25904;-68
2022/12/15 13:10:47;;;;;;;127.10;64.05;;;;;;;0.36;77.78;96473.44;1466187;96;25814;-69
2022/12/15 13:13:37;;;;;;;124.85;65.87;;;;;;;0.36;77.72;96477.42;1466169;96;26493;-68
2022/12/15 13:16:12;;;;;;;115.72;63.42;;;;;;;0.31;77.65;96496.20;1465898;96;25840;-70
2022/12/15 13:19:03;;;;;;;130.80;69.25;;;;;;;0.27;77.69;96486.41;1472946;94;27550;-68
2022/12/15 13:21:47;;;;;;;125.82;65.75;;;;;;;0.26;77.74;96488.73;1498772;94;25870;-70
2022/12/15 13:24:36;;;;;;;165.45;80.87;;;;;;;0.23;77.74;96483.79;1498915;94;25400;-68
2022/12/15 13:27:12;;;;;;;191.18;89.47;;;;;;;0.24;77.82;96481.44;1512740;93;25940;-70
2022/12/15 13:30:02;;;;;;;147.70;77.62;;;;;;;0.28;77.89;96473.47;1521921;92;25467;-68
2022/12/15 13:32:45;;;;;;;136.50;71.97;;;;;;;0.34;77.93;96476.80;1522258;92;27398;-68
2022/12/15 13:35:20;;;;;;;144.30;75.35;;;;;;;0.41;77.88;96471.61;1523795;91;25877;-68
2022/12/15 13:37:56;;;;;;;143.72;75.20;;;;;;;0.43;77.76;96469.63;1637466;86;25862;-67
2022/12/15 13:40:34;;;;;;;129.05;66.33;;;;;;;0.36;77.59;96458.05;1638590;86;25830;-71
2022/12/15 13:43:08;;;;;;;126.50;66.45;;;;;;;0.30;77.64;96456.88;1638414;86;25752;-67
2022/12/15 13:45:57;;;;;;;139.07;74.22;;;;;;;0.31;77.67;96464.35;1650557;86;27614;-72
2022/12/15 13:48:34;;;;;;;140.43;71.80;;;;;;;0.36;77.77;96468.13;1700343;84;25803;-68
2022/12/15 13:51:23;;;;;;;161.30;85.70;;;;;;;0.39;77.74;96474.10;1712349;82;25751;-71
2022/12/15 13:54:24;;;;;;;144.82;77.45;;;;;;;0.41;77.76;96473.44;1717349;82;26098;-68
2022/12/15 13:56:59;;;;;;;138.50;76.55;;;;;;;0.36;77.65;96490.70;1697664;82;25715;-68
2022/12/15 13:59:44;;;;;;;140.03;72.82;;;;;;;0.39;77.73;96499.33;1590536;88;28326;-67
2022/12/15 14:02:33;;;;;;;136.00;73.65;;;;;;;0.42;77.80;96493.69;1562628;91;25782;-70
2022/12/15 14:05:19;;;;;;;139.43;73.20;;;;;;;0.46;77.81;96500.32;1590605;89;25855;-70
2022/12/15 14:07:59;;;;;;;144.77;73.35;;;;;;;0.48;77.70;96497.00;1636300;86;25795;-68